Scroll down
FLIGHT INFORMATION
Continental Airlines

COA783

At Arrival Gate

KLAX
 KIAD
DATE: 2020-02-29
GATE: 75B
GATE DEPARTURE: 19:01
TAKEOFF: 19:15
DATE: 2020-02-29
GATE:  -
LANDING: 23:38
GATE ARRIVAL: 23:46
FLIGHT DATA
Crew: 
Speed: 
458 kts
Altitude: 
39,036 ft
Stage Length: 
1,983.6 nm
Block Time: 
4.7 hrs
Flight Time: 
4.4 hrs
Fuel Used: 
20,770 lb
Cleared Route: 
TRACK DATA
50,000 ft 1,000 kts
AIRCRAFT INFO AND CUMULATIVE STATS
Aircraft Type: 
B737BW
Registration: 
SELCAL: 
JPFG
MSN/LN: 
28950 / 376
Operator: 
Total Flights: 
10
Total Block Time: 
18.7 hrs
Total Flight Time: 
16 hrs
Total Fuel Time: 
85,089 lb
DATALINK LOG | Newest first | Current as of: 2021-04-19 09:07:56
LABEL SEQUENCE CONTENT Dn/Up
QD462723:46 5.8▼ Dn
QC394123:38▼ Dn
2U0423KIAD 010452Z 31008G17KT 10SM CLR M01/M12 A3017 RMK AO2 SLP218 T10061117 400281028, VATSIM INJECTION▲ Up
2S0423KIAD▼ Dn
QB165419:15▼ Dn
A30232CLEARED TO KIAD VIA KLAX KIAD COA783 N14735 . SQUAWK 7736.▲ Up
B30147KLAX KIAD COA783 N14735 ▼ Dn
A30140CLEARED TO KIAD VIA KLAX KIAD COA783 N14735 . SQUAWK 5416.▲ Up
QA012419:01 26.7▼ Dn
B30147KLAX KIAD COA783 N14735 ▼ Dn
2U5714KLAX 291753Z 10008KT 10SM FEW026 SCT100 BKN180 17/11 A3008 RMK AO2 SLP184 T01720111 10178 20139 51006▲ Up
2S5714KLAX▼ Dn
2U5322KLAX 291753Z 10008KT 10SM FEW026 SCT100 BKN180 17/11 A3008 RMK AO2 SLP184 T01720111 10178 20139 51006▲ Up
2S5322KLAX▼ Dn
A35324CLEARED TO KIAD VIA KLAX KIAD COA783 N14735 . SQUAWK 7402.▲ Up
B35303KLAX KIAD COA783 N14735 ▼ Dn
Q04918[LINK ACK]▲ Up
Q04943[LINK TEST]▼ Dn


AIRCRAFT HISTORY
FLIGHT DATE FLIGHT NO. ORIGIN DESTINATION CLEARED ROUTE BLOCK TIME FLIGHT TIME FUEL USED PILOT
2020-10-13COA2201KDCA KPHL KDCA DQO KPHL0.7 hrs0.5 hrs3,647 lbJames W.
2020-07-14COA2201CYYZ KDCA CYYZ MOBEL BIRLI VIDRA DUSOM RIGUS MIKKY PSB SHILO SKILS BAL EYESS BRUNC FELTY HITEK CAVDI KATRN RW011.2 hrs1 hrs6,222 lbRoberto Stopnicki
2020-04-21COA262KBOS CYYZ 1.5 hrs1.4 hrs7,486 lbCharles Harris
2020-04-11COA421KEWR KBOS 1 hrs0.8 hrs4,326 lbKyle Weber
2020-03-06COA1972KIAD KEWR 0.9 hrs0.7 hrs4,553 lbKyle Weber
2020-02-29COA783KLAX KIAD 4.7 hrs4.4 hrs20,770 lbKyle Weber
2020-02-05COA208KIAD KLAX 5.7 hrs5.3 hrs26,596 lbKyle Weber
2020-02-01COA2201KORF KIAD 0.9 hrs0.6 hrs3,923 lbAaron Buchanan
2020-01-30COA994KIAD KORF 1.2 hrs0.7 hrs3,904 lbKyle Weber
2020-01-26COA360KRDU KIAD 0.9 hrs0.7 hrs3,661 lbKyle Weber